Time;durP1;ratioP1;P1;durP2;ratioP2;P2;SDS_P1;SDS_P2;PMS_P1;PMS_P2;Temp;Humidity;BMP_temperature;BMP_pressure;BME280_temperature;BME280_humidity;BME280_pressure;Samples;Min_cycle;Max_cycle;Signal;HPM_P1;HPM_P2
2021/07/21 00:00:11;;;;;;;1.50;0.90;;;17.10;99.90;;;;;;4949127;28;20414;-74
2021/07/21 00:02:37;;;;;;;0.80;0.60;;;17.10;99.90;;;;;;4950572;29;20209;-74
2021/07/21 00:05:11;;;;;;;1.97;1.87;;;17.00;99.90;;;;;;4949316;28;20438;-74
2021/07/21 00:07:36;;;;;;;1.57;1.20;;;17.00;99.90;;;;;;4951085;28;20434;-74
2021/07/21 00:10:04;;;;;;;3.43;1.47;;;17.00;99.90;;;;;;4951698;28;20445;-75
2021/07/21 00:15:14;;;;;;;0.90;0.60;;;16.90;99.90;;;;;;4938521;28;20434;-77
2021/07/21 00:17:41;;;;;;;0.80;0.70;;;16.80;99.90;;;;;;4936592;29;20427;-75
2021/07/21 00:20:09;;;;;;;1.83;1.13;;;16.80;99.90;;;;;;4949089;29;20667;-75
2021/07/21 00:22:36;;;;;;;0.90;0.73;;;16.70;99.90;;;;;;4951445;28;20426;-75
2021/07/21 00:25:03;;;;;;;1.03;0.60;;;16.70;99.90;;;;;;4965509;28;20431;-75
2021/07/21 00:27:28;;;;;;;2.40;0.90;;;16.70;99.90;;;;;;4946853;28;20507;-75
2021/07/21 00:29:54;;;;;;;3.20;3.00;;;16.60;99.90;;;;;;4932940;28;20459;-75
2021/07/21 00:32:19;;;;;;;0.90;0.80;;;16.60;99.90;;;;;;4944170;28;20706;-75
2021/07/21 00:34:45;;;;;;;1.40;1.30;;;16.50;99.90;;;;;;4959974;28;20683;-77
2021/07/21 00:37:10;;;;;;;2.30;2.20;;;16.50;99.90;;;;;;4934424;29;20179;-77
2021/07/21 00:39:36;;;;;;;1.63;1.53;;;16.40;99.90;;;;;;4934639;29;20175;-78
2021/07/21 00:42:02;;;;;;;1.70;1.60;;;16.40;99.90;;;;;;4950425;28;20271;-75
2021/07/21 00:44:27;;;;;;;0.80;0.70;;;16.40;99.90;;;;;;4949942;29;20182;-75
2021/07/21 00:46:53;;;;;;;1.00;0.60;;;16.40;99.90;;;;;;4933225;29;20434;-75
2021/07/21 00:49:24;;;;;;;0.83;0.60;;;16.40;99.90;;;;;;4938164;28;20220;-75
2021/07/21 00:51:50;;;;;;;2.50;1.07;;;16.30;99.90;;;;;;4970051;28;20195;-75
2021/07/21 00:54:16;;;;;;;1.77;1.67;;;16.30;99.90;;;;;;4947535;28;20427;-75
2021/07/21 00:56:42;;;;;;;1.00;0.73;;;16.30;99.90;;;;;;4941886;29;20795;-75
2021/07/21 00:59:08;;;;;;;0.80;0.73;;;16.30;99.90;;;;;;4939758;28;20183;-75
2021/07/21 01:01:34;;;;;;;1.20;1.10;;;16.20;99.90;;;;;;4950891;28;20448;-75
2021/07/21 01:04:02;;;;;;;1.93;1.00;;;16.20;99.90;;;;;;4947821;28;20244;-75
2021/07/21 01:06:28;;;;;;;1.53;1.33;;;16.20;99.90;;;;;;4931747;29;20434;-75
2021/07/21 01:08:53;;;;;;;1.33;1.23;;;16.10;99.90;;;;;;4933366;29;20426;-75
2021/07/21 01:11:25;;;;;;;1.67;1.30;;;16.10;99.90;;;;;;4945319;28;20207;-76
2021/07/21 01:14:32;;;;;;;0.90;0.60;;;16.10;99.90;;;;;;4979242;28;20201;-76
2021/07/21 01:17:04;;;;;;;0.90;0.70;;;16.00;99.90;;;;;;4931798;29;20461;-75
2021/07/21 01:20:04;;;;;;;0.90;0.80;;;16.00;99.90;;;;;;4934153;29;20421;-75
2021/07/21 01:22:32;;;;;;;1.47;1.37;;;16.00;99.90;;;;;;4977575;28;20453;-75
2021/07/21 01:25:17;;;;;;;1.20;1.00;;;15.90;99.90;;;;;;4944568;29;20485;-75
2021/07/21 01:27:57;;;;;;;1.17;1.07;;;15.90;99.90;;;;;;4935217;29;20460;-75
2021/07/21 01:30:27;;;;;;;0.90;0.70;;;15.90;99.90;;;;;;4968001;28;20489;-75
2021/07/21 01:33:11;;;;;;;1.73;0.80;;;15.90;99.90;;;;;;4994825;28;20465;-75
2021/07/21 01:35:59;;;;;;;2.20;1.17;;;15.90;99.90;;;;;;4946231;28;20961;-75
2021/07/21 01:38:30;;;;;;;1.30;1.20;;;15.80;99.90;;;;;;4949645;29;20450;-75
2021/07/21 01:41:06;;;;;;;1.43;0.80;;;15.80;99.90;;;;;;4952378;29;20430;-76
2021/07/21 01:43:33;;;;;;;1.00;0.83;;;15.80;99.90;;;;;;4956683;28;20496;-76
2021/07/21 01:46:01;;;;;;;1.47;1.37;;;15.70;99.90;;;;;;4934714;29;20411;-75
2021/07/21 01:48:31;;;;;;;1.00;0.90;;;15.70;99.90;;;;;;4946915;28;20557;-75
2021/07/21 01:50:59;;;;;;;1.13;1.03;;;15.70;99.90;;;;;;4934841;29;20754;-76
2021/07/21 01:53:27;;;;;;;1.57;0.87;;;15.70;99.90;;;;;;4962024;28;20460;-76
2021/07/21 01:55:54;;;;;;;0.77;0.57;;;15.70;99.90;;;;;;4978088;28;20417;-75
2021/07/21 01:58:20;;;;;;;1.50;1.20;;;15.70;99.90;;;;;;4937352;28;20430;-75
2021/07/21 02:00:49;;;;;;;1.70;1.60;;;15.60;99.90;;;;;;4934841;29;20464;-75
2021/07/21 02:03:17;;;;;;;0.83;0.60;;;15.60;99.90;;;;;;4946372;29;20469;-75
2021/07/21 02:05:43;;;;;;;1.13;0.93;;;15.60;99.90;;;;;;5030214;28;20422;-75
2021/07/21 02:08:09;;;;;;;1.17;0.80;;;15.60;99.90;;;;;;5055069;28;20763;-76
2021/07/21 02:10:35;;;;;;;1.73;0.93;;;15.50;99.90;;;;;;4972860;28;20434;-76
2021/07/21 02:13:07;;;;;;;1.63;0.77;;;15.50;99.90;;;;;;4940775;29;20508;-76
2021/07/21 02:15:34;;;;;;;1.23;1.13;;;15.50;99.90;;;;;;4944675;28;20441;-76
2021/07/21 02:18:01;;;;;;;0.80;0.67;;;15.50;99.90;;;;;;4934552;29;20900;-75
2021/07/21 02:20:28;;;;;;;2.30;1.67;;;15.40;99.90;;;;;;4934455;29;20914;-76
2021/07/21 02:22:54;;;;;;;7.60;1.73;;;15.40;99.90;;;;;;4937481;28;20449;-75
2021/07/21 02:25:25;;;;;;;1.00;0.80;;;15.40;99.90;;;;;;4948712;28;20433;-75
2021/07/21 02:27:51;;;;;;;1.57;1.07;;;15.40;99.90;;;;;;4942212;29;20942;-75
2021/07/21 02:30:18;;;;;;;1.20;0.70;;;15.40;99.90;;;;;;4933794;29;20411;-76
2021/07/21 02:32:56;;;;;;;0.77;0.67;;;15.40;99.90;;;;;;4934570;29;20461;-75
2021/07/21 02:35:22;;;;;;;2.47;2.27;;;15.40;99.90;;;;;;5019293;28;20436;-75
2021/07/21 02:37:49;;;;;;;1.00;0.70;;;15.30;99.90;;;;;;4990795;28;20427;-75
2021/07/21 02:40:16;;;;;;;1.57;1.47;;;15.30;99.90;;;;;;4950128;28;20175;-75
2021/07/21 02:42:42;;;;;;;0.70;0.60;;;15.30;99.90;;;;;;4950472;29;20525;-75
2021/07/21 02:45:08;;;;;;;1.00;0.83;;;15.30;99.90;;;;;;4954046;28;20525;-75
2021/07/21 02:47:34;;;;;;;3.03;2.83;;;15.20;99.90;;;;;;4933926;28;20186;-76
2021/07/21 02:49:59;;;;;;;1.00;0.63;;;15.20;99.90;;;;;;4934963;29;20443;-75
2021/07/21 02:52:51;;;;;;;2.50;1.07;;;15.20;99.90;;;;;;4941446;29;20249;-75
2021/07/21 02:55:24;;;;;;;0.80;0.70;;;15.10;99.90;;;;;;4940248;28;20418;-75
2021/07/21 02:58:17;;;;;;;1.20;0.93;;;15.10;99.90;;;;;;4950804;28;20427;-75
2021/07/21 03:00:44;;;;;;;1.53;1.17;;;15.10;99.90;;;;;;4935955;29;20418;-75
2021/07/21 03:03:10;;;;;;;0.80;0.63;;;15.10;99.90;;;;;;4936850;29;20485;-75
2021/07/21 03:05:37;;;;;;;5.43;1.73;;;15.10;99.90;;;;;;4945438;28;20422;-76
2021/07/21 03:08:03;;;;;;;1.57;1.47;;;15.00;99.90;;;;;;5039422;28;20460;-76
2021/07/21 03:10:30;;;;;;;0.70;0.50;;;15.00;99.90;;;;;;4933649;29;20498;-75
2021/07/21 03:13:03;;;;;;;1.57;1.37;;;15.00;99.90;;;;;;4935484;29;20466;-75
2021/07/21 03:15:31;;;;;;;0.97;0.87;;;15.00;99.90;;;;;;4945900;29;20427;-75
2021/07/21 03:17:59;;;;;;;1.03;0.93;;;15.00;99.90;;;;;;4963243;28;20846;-76
2021/07/21 03:20:25;;;;;;;1.33;1.23;;;14.90;99.90;;;;;;4958293;28;20426;-76
2021/07/21 03:22:53;;;;;;;1.10;0.80;;;15.00;99.90;;;;;;4954311;28;20472;-75
2021/07/21 03:25:21;;;;;;;1.40;1.30;;;14.90;99.90;;;;;;4951629;29;20438;-75
2021/07/21 03:27:50;;;;;;;1.77;1.53;;;14.90;99.90;;;;;;4951801;29;20414;-75
2021/07/21 03:30:17;;;;;;;1.40;1.30;;;14.90;99.90;;;;;;4952424;28;20611;-75
2021/07/21 03:32:44;;;;;;;0.83;0.80;;;14.80;99.90;;;;;;4952201;28;20478;-75
2021/07/21 03:35:11;;;;;;;1.10;0.83;;;14.80;99.90;;;;;;4952766;28;20495;-75
2021/07/21 03:37:40;;;;;;;1.00;0.77;;;14.80;99.90;;;;;;4951923;28;20421;-75
2021/07/21 03:40:07;;;;;;;1.20;1.10;;;14.80;99.90;;;;;;4952273;29;20486;-76
2021/07/21 03:42:35;;;;;;;0.70;0.50;;;14.70;99.90;;;;;;4951758;28;20541;-76
2021/07/21 03:45:05;;;;;;;0.80;0.60;;;14.70;99.90;;;;;;4951581;29;20461;-75
2021/07/21 03:47:33;;;;;;;1.00;0.90;;;14.70;99.90;;;;;;4952082;29;20430;-76
2021/07/21 03:49:59;;;;;;;1.07;0.70;;;14.70;99.90;;;;;;4951013;29;20441;-75
2021/07/21 03:52:25;;;;;;;0.97;0.60;;;14.70;99.90;;;;;;4952621;28;20465;-75
2021/07/21 03:54:52;;;;;;;3.77;1.70;;;14.60;99.90;;;;;;4946990;28;20433;-75
2021/07/21 03:57:18;;;;;;;1.53;1.00;;;14.60;99.90;;;;;;4945035;29;20419;-76
2021/07/21 03:59:44;;;;;;;5.57;1.70;;;14.60;99.90;;;;;;4932962;29;20492;-77
2021/07/21 04:02:10;;;;;;;0.80;0.60;;;14.60;99.90;;;;;;4964104;28;20829;-75
2021/07/21 04:04:40;;;;;;;1.60;1.20;;;14.60;99.90;;;;;;4968658;28;20996;-76
2021/07/21 04:07:08;;;;;;;0.80;0.73;;;14.60;99.90;;;;;;4934005;29;20434;-75
2021/07/21 04:09:34;;;;;;;1.00;0.70;;;14.60;99.90;;;;;;4932789;29;20411;-78
2021/07/21 04:12:01;;;;;;;1.50;1.37;;;14.60;99.90;;;;;;4947125;29;20831;-76
2021/07/21 04:14:28;;;;;;;0.80;0.70;;;14.60;99.90;;;;;;4943109;29;20419;-77
2021/07/21 04:16:55;;;;;;;0.80;0.80;;;14.60;99.90;;;;;;4952443;28;20453;-76
2021/07/21 04:19:22;;;;;;;1.00;0.87;;;14.70;99.90;;;;;;4959188;28;20432;-75
2021/07/21 04:21:50;;;;;;;3.77;3.57;;;14.70;99.90;;;;;;4947332;28;20470;-75
2021/07/21 04:24:17;;;;;;;1.00;0.60;;;14.70;99.90;;;;;;4937316;29;20442;-75
2021/07/21 04:26:43;;;;;;;1.40;1.27;;;14.70;99.90;;;;;;4950682;28;20430;-75
2021/07/21 04:29:14;;;;;;;0.90;0.80;;;14.80;99.90;;;;;;4935615;29;20438;-76
2021/07/21 04:31:41;;;;;;;1.00;0.90;;;14.80;99.90;;;;;;4936793;29;20938;-75
2021/07/21 04:34:09;;;;;;;0.80;0.80;;;14.80;99.90;;;;;;4945666;29;20509;-76
2021/07/21 04:36:37;;;;;;;0.90;0.90;;;14.80;99.90;;;;;;4942225;29;20919;-78
2021/07/21 04:39:04;;;;;;;1.77;1.67;;;14.90;99.90;;;;;;4951333;29;20455;-77
2021/07/21 04:41:30;;;;;;;0.80;0.80;;;14.90;99.90;;;;;;4993367;28;20535;-74
2021/07/21 04:43:56;;;;;;;1.33;1.23;;;14.90;99.90;;;;;;4965143;28;21063;-75
2021/07/21 04:46:22;;;;;;;1.00;0.90;;;15.00;99.90;;;;;;4935772;29;20437;-75
2021/07/21 04:48:48;;;;;;;1.17;1.07;;;15.00;99.90;;;;;;4932128;29;20187;-75
2021/07/21 04:51:18;;;;;;;1.00;0.80;;;15.00;99.90;;;;;;4932257;29;20807;-75
2021/07/21 04:53:43;;;;;;;0.80;0.60;;;15.10;99.90;;;;;;4931572;29;20447;-75
2021/07/21 04:56:09;;;;;;;2.13;0.83;;;15.10;99.90;;;;;;4964897;28;20437;-75
2021/07/21 04:58:35;;;;;;;1.30;1.00;;;15.10;99.90;;;;;;4933446;28;20494;-78
2021/07/21 05:01:00;;;;;;;1.20;0.90;;;15.20;99.90;;;;;;4940202;29;20558;-76
2021/07/21 05:03:26;;;;;;;4.50;1.60;;;15.20;99.90;;;;;;4949783;29;20196;-75
2021/07/21 05:05:52;;;;;;;1.10;0.60;;;15.30;99.90;;;;;;4932966;29;20544;-76
2021/07/21 05:08:17;;;;;;;0.80;0.60;;;15.40;99.90;;;;;;4960276;28;20183;-76
2021/07/21 05:10:46;;;;;;;1.07;0.70;;;15.40;99.90;;;;;;4933206;29;20183;-75
2021/07/21 05:13:11;;;;;;;0.80;0.77;;;15.50;99.90;;;;;;4946525;29;20212;-76
2021/07/21 05:15:37;;;;;;;3.50;0.80;;;15.60;99.90;;;;;;4944075;28;20983;-75
2021/07/21 05:18:03;;;;;;;0.80;0.70;;;15.60;99.90;;;;;;4944103;29;20178;-75
2021/07/21 05:20:29;;;;;;;1.07;0.60;;;15.70;99.90;;;;;;4953499;28;20429;-76
2021/07/21 05:22:54;;;;;;;1.53;0.80;;;15.80;99.90;;;;;;4950952;29;20672;-75
2021/07/21 05:25:20;;;;;;;0.80;0.60;;;15.90;99.90;;;;;;4936455;29;20185;-76
2021/07/21 05:27:46;;;;;;;0.80;0.70;;;16.00;99.90;;;;;;4939467;28;20534;-75
2021/07/21 05:30:13;;;;;;;4.10;1.93;;;16.00;99.90;;;;;;4949888;28;20779;-76
2021/07/21 05:32:39;;;;;;;1.33;1.23;;;16.10;99.90;;;;;;4965040;28;20203;-76
2021/07/21 05:35:06;;;;;;;1.50;1.27;;;16.20;99.90;;;;;;4935514;29;20528;-76
2021/07/21 05:37:32;;;;;;;1.93;1.83;;;16.30;99.90;;;;;;4951748;28;20249;-76
2021/07/21 05:39:58;;;;;;;1.73;1.47;;;16.40;99.90;;;;;;4950803;28;20502;-75
2021/07/21 05:42:23;;;;;;;1.30;1.10;;;16.50;99.90;;;;;;4950438;28;20675;-76
2021/07/21 05:44:49;;;;;;;3.83;3.63;;;16.60;99.90;;;;;;4947540;28;20975;-76
2021/07/21 05:47:14;;;;;;;1.43;1.03;;;16.70;99.90;;;;;;4985436;28;20186;-76
2021/07/21 05:49:40;;;;;;;0.90;0.73;;;16.90;99.90;;;;;;4979245;28;20191;-76
2021/07/21 05:52:06;;;;;;;2.10;2.00;;;17.00;99.90;;;;;;4933463;29;20211;-76
2021/07/21 05:54:36;;;;;;;2.60;2.40;;;17.10;99.90;;;;;;4943084;29;20477;-75
2021/07/21 05:57:05;;;;;;;1.27;0.83;;;17.20;99.90;;;;;;4942191;29;20414;-76
2021/07/21 05:59:31;;;;;;;1.10;1.00;;;17.30;99.90;;;;;;4989281;28;20417;-76
2021/07/21 06:01:56;;;;;;;2.90;2.70;;;17.50;99.90;;;;;;4935787;28;20430;-76
2021/07/21 06:04:22;;;;;;;2.33;1.63;;;17.70;99.90;;;;;;4933757;29;20187;-77
2021/07/21 06:06:48;;;;;;;1.80;1.63;;;17.80;99.90;;;;;;4947441;28;20186;-76
2021/07/21 06:09:13;;;;;;;1.83;1.47;;;18.00;99.90;;;;;;4953798;29;20170;-76
2021/07/21 06:11:39;;;;;;;2.00;1.13;;;18.20;99.90;;;;;;4982332;28;20631;-76
2021/07/21 06:14:05;;;;;;;1.80;1.37;;;18.40;99.90;;;;;;4971236;28;20198;-77
2021/07/21 06:16:31;;;;;;;3.80;1.17;;;18.60;99.90;;;;;;4941879;29;20203;-76
2021/07/21 06:18:57;;;;;;;1.73;1.30;;;18.80;99.90;;;;;;4937940;29;20467;-77
2021/07/21 06:21:24;;;;;;;1.00;0.90;;;18.90;99.90;;;;;;4953692;28;20181;-76
2021/07/21 06:23:50;;;;;;;2.10;2.00;;;19.20;99.90;;;;;;4950968;28;20543;-77
2021/07/21 06:26:16;;;;;;;1.77;1.30;;;19.40;99.90;;;;;;4942663;28;20423;-76
2021/07/21 06:28:42;;;;;;;1.53;1.13;;;19.50;99.90;;;;;;4935479;29;20441;-76
2021/07/21 06:31:08;;;;;;;5.90;1.67;;;19.70;99.90;;;;;;4934228;29;20407;-77
2021/07/21 06:33:34;;;;;;;1.47;1.37;;;19.90;99.90;;;;;;4944597;29;20521;-77
2021/07/21 06:36:01;;;;;;;1.50;1.40;;;20.00;99.90;;;;;;4953555;28;20171;-78
2021/07/21 06:38:28;;;;;;;0.90;0.73;;;20.20;99.90;;;;;;4956734;28;20426;-77
2021/07/21 06:40:53;;;;;;;1.83;1.50;;;20.40;99.90;;;;;;4955482;29;20449;-75
2021/07/21 06:43:19;;;;;;;3.03;1.10;;;20.50;99.90;;;;;;4954857;28;20442;-79
2021/07/21 06:45:44;;;;;;;1.40;1.30;;;20.70;99.90;;;;;;4961279;28;20547;-78
2021/07/21 06:48:10;;;;;;;1.60;1.50;;;20.80;99.90;;;;;;4959485;28;20202;-79
2021/07/21 06:50:36;;;;;;;1.33;1.10;;;21.00;99.90;;;;;;4956631;28;20256;-78
2021/07/21 06:53:02;;;;;;;0.90;0.80;;;21.20;99.90;;;;;;4952232;28;20198;-76
2021/07/21 06:55:27;;;;;;;3.50;1.10;;;21.30;99.90;;;;;;4952829;29;20661;-77
2021/07/21 06:57:53;;;;;;;1.53;1.43;;;21.40;99.90;;;;;;4961089;28;20422;-77
2021/07/21 07:00:19;;;;;;;3.23;1.57;;;21.60;99.90;;;;;;4951561;28;20241;-77
2021/07/21 07:02:44;;;;;;;1.43;1.33;;;21.70;99.90;;;;;;4952079;28;20707;-77
2021/07/21 07:05:10;;;;;;;0.97;0.87;;;21.80;99.90;;;;;;4952349;28;20190;-77
2021/07/21 07:07:36;;;;;;;8.50;1.13;;;22.00;99.90;;;;;;4952941;28;20675;-77
2021/07/21 07:10:03;;;;;;;2.50;2.40;;;22.20;99.90;;;;;;4951694;28;20190;-77
2021/07/21 07:12:29;;;;;;;1.70;1.60;;;22.30;99.90;;;;;;4974871;28;20292;-77
2021/07/21 07:14:55;;;;;;;1.93;1.43;;;22.50;99.90;;;;;;4952165;28;20515;-77
2021/07/21 07:17:21;;;;;;;1.10;0.90;;;22.70;99.90;;;;;;4952115;28;20585;-77
2021/07/21 07:19:46;;;;;;;1.23;1.13;;;22.80;99.90;;;;;;4952124;29;20558;-77
2021/07/21 07:22:12;;;;;;;0.90;0.80;;;23.00;99.90;;;;;;4951885;28;20449;-78
2021/07/21 07:24:37;;;;;;;1.60;1.50;;;23.10;99.90;;;;;;4952177;28;20556;-77
2021/07/21 07:27:03;;;;;;;1.00;0.90;;;23.20;99.90;;;;;;4953159;29;20555;-79
2021/07/21 07:29:29;;;;;;;1.93;1.40;;;23.30;99.90;;;;;;4957546;29;20217;-78
2021/07/21 07:31:55;;;;;;;1.43;1.30;;;23.70;99.90;;;;;;4956690;28;20477;-77
2021/07/21 07:34:21;;;;;;;1.73;1.63;;;23.90;99.90;;;;;;4965862;28;20991;-78
2021/07/21 07:36:47;;;;;;;1.83;1.43;;;24.00;99.90;;;;;;4951673;29;20627;-78
2021/07/21 07:39:13;;;;;;;1.20;1.10;;;24.20;99.90;;;;;;4957107;28;20426;-80
2021/07/21 07:41:39;;;;;;;1.00;0.70;;;24.40;99.90;;;;;;4954985;28;20236;-80
2021/07/21 07:44:05;;;;;;;2.23;1.43;;;24.70;99.90;;;;;;4953220;28;20981;-80
2021/07/21 07:46:32;;;;;;;1.83;0.90;;;24.80;99.90;;;;;;4954670;28;20599;-78
2021/07/21 07:48:58;;;;;;;1.30;1.10;;;25.20;99.90;;;;;;4952156;28;20497;-78
2021/07/21 07:51:24;;;;;;;1.00;0.83;;;25.40;99.90;;;;;;4960392;28;20604;-78
2021/07/21 07:53:51;;;;;;;1.00;0.80;;;25.30;99.90;;;;;;4955032;28;20430;-78
2021/07/21 07:56:16;;;;;;;1.13;1.03;;;25.60;99.90;;;;;;4961785;28;20444;-80
2021/07/21 07:58:42;;;;;;;2.27;0.97;;;25.90;99.90;;;;;;4957313;28;20426;-80
2021/07/21 08:01:08;;;;;;;4.40;2.47;;;26.00;99.90;;;;;;4948307;28;20182;-80
2021/07/21 08:03:33;;;;;;;2.30;2.10;;;26.10;99.90;;;;;;4945217;28;20218;-78
2021/07/21 08:05:59;;;;;;;1.70;1.33;;;26.30;99.90;;;;;;4955803;28;20444;-79
2021/07/21 08:08:26;;;;;;;0.90;0.80;;;26.50;99.90;;;;;;4951122;28;20266;-80
2021/07/21 08:10:52;;;;;;;0.90;0.70;;;26.60;99.90;;;;;;5011768;28;20405;-76
2021/07/21 08:13:19;;;;;;;1.40;1.30;;;26.80;99.80;;;;;;4941138;29;20472;-76
2021/07/21 08:15:46;;;;;;;1.53;1.43;;;27.00;97.40;;;;;;4953333;28;20590;-78
2021/07/21 08:18:12;;;;;;;1.00;0.90;;;27.20;95.50;;;;;;4955333;28;20460;-78
2021/07/21 08:20:38;;;;;;;2.50;1.40;;;27.30;95.00;;;;;;4954627;28;20488;-77
2021/07/21 08:23:05;;;;;;;0.90;0.70;;;27.60;94.40;;;;;;5035685;28;20453;-76
2021/07/21 08:25:31;;;;;;;2.70;0.80;;;27.70;92.60;;;;;;4951602;28;20812;-77
2021/07/21 08:27:57;;;;;;;1.17;0.90;;;27.80;90.90;;;;;;4972891;28;20425;-77
2021/07/21 08:30:23;;;;;;;1.10;1.00;;;28.00;90.20;;;;;;4935447;29;20574;-78
2021/07/21 08:32:51;;;;;;;1.00;0.83;;;28.10;86.20;;;;;;4934792;29;20469;-76
2021/07/21 08:35:19;;;;;;;1.00;0.83;;;28.20;84.50;;;;;;4940001;29;20425;-77
2021/07/21 08:37:45;;;;;;;0.90;0.80;;;28.50;83.90;;;;;;4987461;28;20988;-78
2021/07/21 08:40:12;;;;;;;1.93;1.37;;;28.70;86.40;;;;;;4957750;28;20414;-76
2021/07/21 08:42:38;;;;;;;1.97;1.23;;;28.90;81.00;;;;;;4992096;28;20201;-78
2021/07/21 08:45:06;;;;;;;1.27;0.90;;;28.90;75.80;;;;;;5029873;28;20427;-78
2021/07/21 08:47:31;;;;;;;1.67;1.57;;;28.90;71.40;;;;;;4954006;28;20430;-77
2021/07/21 08:49:57;;;;;;;1.20;1.03;;;28.90;73.30;;;;;;4952746;28;20433;-77
2021/07/21 08:52:23;;;;;;;1.20;0.90;;;29.00;72.60;;;;;;4959793;28;20347;-77
2021/07/21 08:54:49;;;;;;;1.27;1.17;;;28.90;70.50;;;;;;4959843;28;20241;-75
2021/07/21 08:57:16;;;;;;;1.00;0.77;;;28.90;67.90;;;;;;4951789;28;20319;-75
2021/07/21 08:59:43;;;;;;;0.90;0.70;;;29.10;70.70;;;;;;4951036;28;20961;-75
2021/07/21 09:02:11;;;;;;;2.60;1.37;;;29.20;68.30;;;;;;4949603;28;20529;-78
2021/07/21 09:04:37;;;;;;;1.20;0.77;;;29.50;74.40;;;;;;4950913;28;20415;-77
2021/07/21 09:07:04;;;;;;;0.87;0.73;;;29.70;73.30;;;;;;4958521;28;20430;-76
2021/07/21 09:09:30;;;;;;;1.30;0.90;;;30.00;66.30;;;;;;4950597;28;20809;-75
2021/07/21 09:11:57;;;;;;;1.73;0.97;;;30.30;68.30;;;;;;4950746;28;20458;-75
2021/07/21 09:14:23;;;;;;;0.90;0.77;;;30.50;67.20;;;;;;4962973;28;20428;-77
2021/07/21 09:17:10;;;;;;;1.47;1.30;;;30.60;67.30;;;;;;4953489;28;20434;-78
2021/07/21 09:19:42;;;;;;;2.27;1.60;;;30.70;67.60;;;;;;4952975;29;20438;-77
2021/07/21 09:22:22;;;;;;;2.07;1.97;;;30.90;62.70;;;;;;4952084;28;20461;-76
2021/07/21 09:25:19;;;;;;;0.90;0.70;;;30.80;63.90;;;;;;4952979;28;20430;-77
2021/07/21 09:27:50;;;;;;;0.93;0.77;;;31.10;61.20;;;;;;4953720;28;20410;-78
2021/07/21 09:30:19;;;;;;;1.40;1.30;;;31.40;63.10;;;;;;4950604;28;20430;-76
2021/07/21 09:33:00;;;;;;;3.63;0.90;;;31.50;57.50;;;;;;4950624;28;21044;-77
2021/07/21 09:35:36;;;;;;;1.07;0.93;;;31.70;57.70;;;;;;4950610;28;20782;-75
2021/07/21 09:38:07;;;;;;;1.20;0.87;;;31.80;57.70;;;;;;4950926;28;20429;-77
2021/07/21 09:40:33;;;;;;;2.10;2.00;;;32.00;54.30;;;;;;4942494;28;20425;-77
2021/07/21 09:42:59;;;;;;;1.13;1.03;;;31.90;57.80;;;;;;4954984;28;20450;-76
2021/07/21 09:45:24;;;;;;;1.57;1.10;;;31.90;54.60;;;;;;4953853;29;21009;-76
2021/07/21 09:47:53;;;;;;;1.70;1.33;;;31.90;54.40;;;;;;4954118;29;20185;-75
2021/07/21 09:50:25;;;;;;;1.53;0.90;;;31.60;53.30;;;;;;4953633;28;20248;-75
2021/07/21 09:52:57;;;;;;;1.90;1.07;;;32.00;58.30;;;;;;4953613;28;20560;-77
2021/07/21 09:55:24;;;;;;;1.93;1.00;;;32.20;56.40;;;;;;4954145;28;20420;-75
2021/07/21 09:58:02;;;;;;;1.37;1.10;;;32.50;55.70;;;;;;4954246;28;20406;-77
2021/07/21 10:00:41;;;;;;;1.20;1.10;;;32.60;53.90;;;;;;4953906;28;20532;-77
2021/07/21 10:03:08;;;;;;;1.77;1.57;;;32.70;54.60;;;;;;4965128;28;20443;-77
2021/07/21 10:05:33;;;;;;;1.10;1.00;;;32.80;53.80;;;;;;4973252;28;20417;-77
2021/07/21 10:08:02;;;;;;;1.23;1.13;;;32.60;52.90;;;;;;4968289;28;20490;-77
2021/07/21 10:10:29;;;;;;;1.40;1.30;;;32.70;53.50;;;;;;4953331;28;20178;-77
2021/07/21 10:13:06;;;;;;;1.50;1.40;;;32.60;52.30;;;;;;4953730;28;20833;-77
2021/07/21 10:15:32;;;;;;;2.10;1.90;;;32.50;52.50;;;;;;4952990;28;20401;-75
2021/07/21 10:18:14;;;;;;;1.50;1.40;;;32.80;55.30;;;;;;4952736;28;20425;-75
2021/07/21 10:20:44;;;;;;;1.20;0.90;;;32.90;55.40;;;;;;4953653;28;20425;-77
2021/07/21 10:23:12;;;;;;;1.83;1.33;;;32.90;54.70;;;;;;4953307;28;20927;-77
2021/07/21 10:25:38;;;;;;;1.70;1.60;;;32.80;52.50;;;;;;4953547;29;21004;-74
2021/07/21 10:28:05;;;;;;;2.27;2.07;;;32.80;52.00;;;;;;4952146;28;20471;-74
2021/07/21 10:30:32;;;;;;;1.20;0.90;;;32.40;52.30;;;;;;4947494;28;20181;-74
2021/07/21 10:32:59;;;;;;;1.80;1.70;;;32.80;53.70;;;;;;4953375;28;20459;-74
2021/07/21 10:35:26;;;;;;;1.20;1.10;;;33.10;50.70;;;;;;4953049;28;20884;-77
2021/07/21 10:37:52;;;;;;;1.97;1.50;;;33.30;51.60;;;;;;4953618;28;20790;-77
2021/07/21 10:40:23;;;;;;;1.73;1.57;;;33.20;51.70;;;;;;4954304;28;20433;-75
2021/07/21 10:42:54;;;;;;;2.17;1.40;;;33.50;52.20;;;;;;4950788;28;20452;-77
2021/07/21 10:45:22;;;;;;;1.17;1.00;;;33.30;49.10;;;;;;4940760;28;20983;-74
2021/07/21 10:47:53;;;;;;;0.93;0.80;;;33.10;50.80;;;;;;4934471;29;20426;-75
2021/07/21 10:51:18;;;;;;;1.77;1.67;;;33.10;52.10;;;;;;4934997;29;20513;-74
2021/07/21 10:59:13;;;;;;;1.90;1.03;;;33.90;53.80;;;;;;4934980;28;20433;-76
2021/07/21 11:01:47;;;;;;;1.07;0.97;;;34.00;52.00;;;;;;4946084;29;20485;-75
2021/07/21 11:04:13;;;;;;;1.20;1.10;;;33.80;51.30;;;;;;4967753;28;20440;-75
2021/07/21 11:06:47;;;;;;;1.80;1.47;;;33.60;51.90;;;;;;4996657;28;20426;-74
2021/07/21 11:09:24;;;;;;;2.20;2.10;;;33.70;53.50;;;;;;4947388;28;20426;-75
2021/07/21 11:11:59;;;;;;;1.40;1.10;;;33.70;53.40;;;;;;4960652;28;20822;-75
2021/07/21 11:14:30;;;;;;;2.07;1.53;;;33.60;51.70;;;;;;4977302;28;20432;-75
2021/07/21 11:17:01;;;;;;;1.50;1.40;;;33.70;53.20;;;;;;4991283;28;20926;-77
2021/07/21 11:19:30;;;;;;;2.47;2.17;;;33.80;53.20;;;;;;4989781;28;20433;-77
2021/07/21 11:21:57;;;;;;;1.53;1.33;;;34.10;53.90;;;;;;5023773;28;20560;-77
2021/07/21 11:24:22;;;;;;;2.73;1.83;;;34.30;52.90;;;;;;4940596;29;20445;-78
2021/07/21 11:26:52;;;;;;;1.43;1.33;;;34.30;54.00;;;;;;4952030;28;21115;-77
2021/07/21 11:31:49;;;;;;;2.63;1.53;;;34.60;51.10;;;;;;4966170;28;20466;-77
2021/07/21 11:34:34;;;;;;;1.30;1.00;;;34.60;50.90;;;;;;4998046;28;20427;-78
2021/07/21 11:37:32;;;;;;;1.97;1.20;;;34.60;49.60;;;;;;4940946;29;20178;-75
2021/07/21 11:39:59;;;;;;;3.33;1.73;;;34.40;48.80;;;;;;4949093;28;20508;-75
2021/07/21 11:42:30;;;;;;;1.70;1.60;;;34.40;49.60;;;;;;4933871;29;20458;-77
2021/07/21 11:45:02;;;;;;;2.07;1.40;;;34.30;48.70;;;;;;4933146;29;20438;-77
2021/07/21 11:47:34;;;;;;;1.33;1.23;;;34.30;49.50;;;;;;4959539;28;20473;-76
2021/07/21 11:50:00;;;;;;;2.33;2.23;;;34.30;52.00;;;;;;4947240;28;20451;-77
2021/07/21 11:52:26;;;;;;;2.13;1.93;;;34.40;52.70;;;;;;4953700;28;20515;-77
2021/07/21 11:54:52;;;;;;;2.70;1.60;;;34.40;51.80;;;;;;4939628;29;20787;-75
2021/07/21 11:57:25;;;;;;;2.20;1.63;;;34.10;51.20;;;;;;4946849;28;20182;-76
2021/07/21 11:59:56;;;;;;;1.73;1.23;;;33.80;49.50;;;;;;4966713;28;20959;-77
2021/07/21 12:02:25;;;;;;;2.70;1.07;;;33.70;51.70;;;;;;4955523;28;20469;-77
2021/07/21 12:04:52;;;;;;;2.27;1.27;;;33.60;52.80;;;;;;4960344;28;20500;-75
2021/07/21 12:07:20;;;;;;;2.30;1.53;;;33.70;51.90;;;;;;4952953;28;20438;-76
2021/07/21 12:09:48;;;;;;;4.73;1.50;;;33.50;52.60;;;;;;4954064;28;20994;-77
2021/07/21 12:12:19;;;;;;;1.97;1.17;;;33.10;52.80;;;;;;4952601;28;20497;-77
2021/07/21 12:15:00;;;;;;;2.07;1.63;;;32.70;51.90;;;;;;4953422;29;20453;-77
2021/07/21 12:17:26;;;;;;;1.00;0.90;;;32.40;52.80;;;;;;4952601;28;20425;-78
2021/07/21 12:19:57;;;;;;;5.53;1.20;;;32.40;54.20;;;;;;4957335;28;20421;-77
2021/07/21 12:22:24;;;;;;;2.00;1.70;;;32.30;52.90;;;;;;4942198;29;20468;-79
2021/07/21 12:24:58;;;;;;;1.10;1.00;;;32.60;55.10;;;;;;4953055;28;20425;-75
2021/07/21 12:27:33;;;;;;;1.57;1.43;;;32.80;53.90;;;;;;4953188;29;20441;-77
2021/07/21 12:30:17;;;;;;;1.90;1.80;;;32.90;54.60;;;;;;4951515;29;20518;-76
2021/07/21 12:32:45;;;;;;;1.70;1.53;;;33.10;53.70;;;;;;4952410;29;20461;-76
2021/07/21 12:35:11;;;;;;;1.47;1.20;;;33.30;53.10;;;;;;4952219;29;20418;-77
2021/07/21 12:38:00;;;;;;;2.33;2.10;;;33.10;51.60;;;;;;4950548;28;20418;-77
2021/07/21 12:40:32;;;;;;;1.73;1.63;;;33.10;51.70;;;;;;4952813;29;20842;-77
2021/07/21 12:43:00;;;;;;;1.87;1.30;;;33.10;51.50;;;;;;4951996;29;20473;-77
2021/07/21 12:45:28;;;;;;;1.50;1.07;;;33.10;49.60;;;;;;4950209;28;20428;-76
2021/07/21 12:47:56;;;;;;;2.70;1.37;;;33.20;51.70;;;;;;4952292;29;20759;-77
2021/07/21 12:50:23;;;;;;;1.83;1.60;;;33.20;52.30;;;;;;4952952;29;20442;-77
2021/07/21 12:53:03;;;;;;;2.47;1.80;;;33.40;52.20;;;;;;4952126;28;20465;-76
2021/07/21 12:55:33;;;;;;;4.37;2.33;;;33.60;54.70;;;;;;4952585;29;20774;-75
2021/07/21 12:58:11;;;;;;;1.80;1.70;;;33.50;51.50;;;;;;4952782;28;20422;-77
2021/07/21 13:00:43;;;;;;;3.17;2.50;;;33.40;53.10;;;;;;4950248;28;20417;-77
2021/07/21 13:03:11;;;;;;;2.60;1.63;;;33.30;49.90;;;;;;4952372;28;20473;-76
2021/07/21 13:05:46;;;;;;;2.27;1.63;;;33.30;51.30;;;;;;5007836;28;20421;-77